createdAt,value
2024-05-09T00:00:30.330Z,93.77
2024-05-09T00:01:22.620Z,93.77
2024-05-09T00:02:22.787Z,93.77
2024-05-09T00:03:22.747Z,93.77
2024-05-09T00:04:22.902Z,93.77
2024-05-09T00:05:22.986Z,93.67
2024-05-09T00:06:22.947Z,93.67
2024-05-09T00:07:23.016Z,93.67
2024-05-09T00:08:23.179Z,93.67
2024-05-09T00:09:23.168Z,93.62
2024-05-09T00:10:32.608Z,93.71
2024-05-09T00:11:23.527Z,93.71
2024-05-09T00:12:23.496Z,93.82
2024-05-09T00:13:23.487Z,93.82
2024-05-09T00:14:23.642Z,93.92
2024-05-09T00:15:23.663Z,93.92
2024-05-09T00:16:23.718Z,94.02
2024-05-09T00:17:24.001Z,93.98
2024-05-09T00:18:24.051Z,94.08
2024-05-09T00:19:23.995Z,94.08
2024-05-09T00:20:28.504Z,94.08
2024-05-09T00:21:24.132Z,94.08
2024-05-09T00:22:24.192Z,93.98
2024-05-09T00:23:24.327Z,93.88
2024-05-09T00:24:24.371Z,93.88
2024-05-09T00:25:24.457Z,93.77
2024-05-09T00:26:24.620Z,93.77
2024-05-09T00:27:24.638Z,93.77
2024-05-09T00:28:24.712Z,93.77
2024-05-09T00:29:24.933Z,93.77
2024-05-09T00:30:33.170Z,93.71
2024-05-09T00:31:24.945Z,93.82
2024-05-09T00:32:25.204Z,93.71
2024-05-09T00:33:25.351Z,93.82
2024-05-09T00:34:25.290Z,93.92
2024-05-09T00:35:25.494Z,94.12
2024-05-09T00:36:25.372Z,94.02
2024-05-09T00:37:25.469Z,94.02
2024-05-09T00:38:25.559Z,94.12
2024-05-09T00:39:25.634Z,94.12
2024-05-09T00:40:35.354Z,94.12
2024-05-09T00:41:25.839Z,94.12
2024-05-09T00:42:25.881Z,94.12
2024-05-09T00:43:25.969Z,94.12
2024-05-09T00:44:26.235Z,94.23
2024-05-09T00:45:26.153Z,94.12
2024-05-09T00:46:26.240Z,94.12
2024-05-09T00:47:26.612Z,94.02
2024-05-09T00:48:26.771Z,94.02
2024-05-09T00:49:26.828Z,93.96
2024-05-09T00:50:35.326Z,94.07
2024-05-09T00:51:26.669Z,94.17
2024-05-09T00:52:26.775Z,94.17
2024-05-09T00:53:26.877Z,94.07
2024-05-09T00:54:26.907Z,94.07
2024-05-09T00:55:26.991Z,94.07
2024-05-09T00:56:27.146Z,94.07
2024-05-09T00:57:27.177Z,94.17
2024-05-09T00:58:27.259Z,94.17
2024-05-09T00:59:27.487Z,94.27
2024-05-09T01:00:35.564Z,94.27
2024-05-09T01:01:27.557Z,94.27
2024-05-09T01:02:27.712Z,94.37
2024-05-09T01:03:28.194Z,94.27
2024-05-09T01:04:27.879Z,94.27
2024-05-09T01:05:27.844Z,94.37
2024-05-09T01:06:27.904Z,94.37
2024-05-09T01:07:27.998Z,94.48
2024-05-09T01:08:28.135Z,94.52
2024-05-09T01:09:28.174Z,94.52
2024-05-09T01:10:34.026Z,94.52
2024-05-09T01:11:28.389Z,94.42
2024-05-09T01:12:28.540Z,94.62
2024-05-09T01:13:28.482Z,94.62
2024-05-09T01:14:28.586Z,94.73
2024-05-09T01:15:28.642Z,94.68
2024-05-09T01:16:28.737Z,94.58
2024-05-09T01:17:28.974Z,94.48
2024-05-09T01:18:28.989Z,94.42
2024-05-09T01:19:29.236Z,94.42
2024-05-09T01:20:39.521Z,94.42
2024-05-09T01:21:29.169Z,94.42
2024-05-09T01:22:29.244Z,94.42
2024-05-09T01:23:29.361Z,94.52
2024-05-09T01:24:29.417Z,94.42
2024-05-09T01:25:29.534Z,94.42
2024-05-09T01:26:29.715Z,94.32
2024-05-09T01:27:29.696Z,94.32
2024-05-09T01:28:29.783Z,94.21
2024-05-09T01:29:29.951Z,94.42
2024-05-09T01:30:34.814Z,94.32
2024-05-09T01:31:30.052Z,94.42
2024-05-09T01:32:30.234Z,94.32
2024-05-09T01:33:30.387Z,94.32
2024-05-09T01:34:30.291Z,94.32
2024-05-09T01:35:30.484Z,94.32
2024-05-09T01:36:30.451Z,94.32
2024-05-09T01:37:30.545Z,94.21
2024-05-09T01:38:30.777Z,94.15
2024-05-09T01:39:30.716Z,94.15
2024-05-09T01:40:37.354Z,94.26
2024-05-09T01:41:30.968Z,94.36
2024-05-09T01:42:30.934Z,94.26
2024-05-09T01:43:31.018Z,94.26
2024-05-09T01:44:31.214Z,94.36
2024-05-09T01:45:31.196Z,94.36
2024-05-09T01:46:31.295Z,94.26
2024-05-09T01:47:31.529Z,94.26
2024-05-09T01:48:31.544Z,94.26
2024-05-09T01:49:31.661Z,94.46
2024-05-09T01:51:31.732Z,94.46
2024-05-09T01:52:31.818Z,94.46
2024-05-09T01:53:31.962Z,94.46
2024-05-09T01:54:31.992Z,94.36
2024-05-09T01:55:32.075Z,94.32
2024-05-09T01:56:32.166Z,94.21
2024-05-09T01:57:32.240Z,94.21
2024-05-09T01:58:32.339Z,94.11
2024-05-09T01:59:32.565Z,94.05
2024-05-09T02:00:38.969Z,93.95
2024-05-09T02:01:55.405Z,93.85
2024-05-09T02:02:32.735Z,93.85
2024-05-09T02:03:32.840Z,93.74
2024-05-09T02:04:32.860Z,93.74
2024-05-09T02:05:32.967Z,93.64
2024-05-09T02:06:32.993Z,93.68
2024-05-09T02:07:33.075Z,93.68
2024-05-09T02:08:33.411Z,93.68
2024-05-09T02:09:33.249Z,93.79
2024-05-09T02:10:33.720Z,93.79
2024-05-09T02:11:33.520Z,93.79
2024-05-09T02:12:33.639Z,93.89
2024-05-09T02:13:33.586Z,93.89
2024-05-09T02:14:33.703Z,93.89
2024-05-09T02:15:33.766Z,93.89
2024-05-09T02:16:33.851Z,93.89
2024-05-09T02:17:34.074Z,93.99
2024-05-09T02:18:34.080Z,94.10
2024-05-09T02:19:34.228Z,94.10
2024-05-09T02:20:36.657Z,93.99
2024-05-09T02:21:34.289Z,94.10
2024-05-09T02:22:34.366Z,94.10
2024-05-09T02:23:34.556Z,93.89
2024-05-09T02:24:34.520Z,93.89
2024-05-09T02:25:34.900Z,94.10
2024-05-09T02:26:34.787Z,94.10
2024-05-09T02:27:34.786Z,94.20
2024-05-09T02:28:34.869Z,94.20
2024-05-09T02:29:35.014Z,94.15
2024-05-09T02:30:39.738Z,94.15
2024-05-09T02:31:35.140Z,94.10
2024-05-09T02:32:35.493Z,93.99
2024-05-09T02:33:35.461Z,93.89
2024-05-09T02:34:35.455Z,93.89
2024-05-09T02:35:35.590Z,93.79
2024-05-09T02:36:35.539Z,93.79
2024-05-09T02:37:35.651Z,93.79
2024-05-09T02:38:35.814Z,93.79
2024-05-09T02:39:35.817Z,93.89
2024-05-09T02:40:38.406Z,93.89
2024-05-09T02:41:36.042Z,93.89
2024-05-09T02:42:36.061Z,93.99
2024-05-09T02:43:36.172Z,93.99
2024-05-09T02:44:36.325Z,93.99
2024-05-09T02:45:36.354Z,93.99
2024-05-09T02:46:36.421Z,93.99
2024-05-09T02:47:36.703Z,93.99
2024-05-09T02:48:36.701Z,93.99
2024-05-09T02:49:36.812Z,93.99
2024-05-09T02:50:39.350Z,93.99
2024-05-09T02:51:36.814Z,93.99
2024-05-09T02:52:36.918Z,94.10
2024-05-09T02:53:37.172Z,94.20
2024-05-09T02:54:37.069Z,94.10
2024-05-09T02:55:37.189Z,94.10
2024-05-09T02:56:37.353Z,94.10
2024-05-09T02:57:37.296Z,93.99
2024-05-09T02:58:37.398Z,93.99
2024-05-09T02:59:37.501Z,93.89
2024-05-09T03:00:40.813Z,93.79
2024-05-09T03:01:37.747Z,93.79
2024-05-09T03:02:37.932Z,93.68
2024-05-09T03:03:38.079Z,93.59
2024-05-09T03:04:37.936Z,93.59
2024-05-09T03:05:38.106Z,93.79
2024-05-09T03:06:38.047Z,93.79
2024-05-09T03:07:38.132Z,93.83
2024-05-09T03:08:38.453Z,94.14
2024-05-09T03:09:38.297Z,94.14
2024-05-09T03:10:39.381Z,94.34
2024-05-09T03:11:38.560Z,94.76
2024-05-09T03:12:39.445Z,94.59
2024-05-09T03:13:38.675Z,94.80
2024-05-09T03:14:38.770Z,95.52
2024-05-09T03:15:38.798Z,95.52
2024-05-09T03:16:38.865Z,95.83
2024-05-09T03:17:39.183Z,95.93
2024-05-09T03:18:39.155Z,96.03
2024-05-09T03:19:39.123Z,96.03
2024-05-09T03:20:39.778Z,96.03
2024-05-09T03:21:39.280Z,96.03
2024-05-09T03:22:39.350Z,96.03
2024-05-09T03:23:39.670Z,95.93
2024-05-09T03:24:39.546Z,95.83
2024-05-09T03:25:39.626Z,95.62
2024-05-09T03:26:39.753Z,95.52
2024-05-09T03:27:39.797Z,95.52
2024-05-09T03:28:39.870Z,95.42
2024-05-09T03:29:39.998Z,95.31
2024-05-09T03:30:42.636Z,95.31
2024-05-09T03:31:40.202Z,95.31
2024-05-09T03:32:40.315Z,95.21
2024-05-09T03:33:40.703Z,95.10
2024-05-09T03:34:40.385Z,95.21
2024-05-09T03:35:40.516Z,95.10
2024-05-09T03:36:40.531Z,95.21
2024-05-09T03:37:40.621Z,95.21
2024-05-09T03:38:40.788Z,95.31
2024-05-09T03:39:40.812Z,95.31
2024-05-09T03:40:40.905Z,95.31
2024-05-09T03:41:41.065Z,95.21
2024-05-09T03:42:41.091Z,95.31
2024-05-09T03:43:41.194Z,95.21
2024-05-09T03:44:41.290Z,95.25
2024-05-09T03:45:41.348Z,95.15
2024-05-09T03:46:41.430Z,95.25
2024-05-09T03:47:41.843Z,95.15
2024-05-09T03:48:41.755Z,95.15
2024-05-09T03:49:41.721Z,95.15
2024-05-09T03:50:41.931Z,95.15
2024-05-09T03:51:41.892Z,95.15
2024-05-09T03:52:41.991Z,95.15
2024-05-09T03:53:42.102Z,95.15
2024-05-09T03:54:42.174Z,95.05
2024-05-09T03:55:42.285Z,95.05
2024-05-09T03:56:42.508Z,95.05
2024-05-09T03:57:42.457Z,95.05
2024-05-09T03:58:42.536Z,94.95
2024-05-09T03:59:42.594Z,94.95
2024-05-09T04:00:42.819Z,94.95
2024-05-09T04:01:42.946Z,95.05
2024-05-09T04:02:42.924Z,95.05
2024-05-09T04:03:43.179Z,95.05
2024-05-09T04:04:43.014Z,94.95
2024-05-09T04:05:43.897Z,94.84
2024-05-09T04:06:43.149Z,94.70
2024-05-09T04:07:43.248Z,94.70
2024-05-09T04:08:43.373Z,94.59
2024-05-09T04:09:43.427Z,94.59
2024-05-09T04:10:43.558Z,94.70
2024-05-09T04:11:43.695Z,94.70
2024-05-09T04:12:43.633Z,94.49
2024-05-09T04:13:43.792Z,94.39
2024-05-09T04:14:43.810Z,94.29
2024-05-09T04:15:43.881Z,94.29
2024-05-09T04:16:44.054Z,94.18
2024-05-09T04:17:44.146Z,94.18
2024-05-09T04:18:44.201Z,94.08
2024-05-09T04:19:44.238Z,93.98
2024-05-09T04:20:44.289Z,93.98
2024-05-09T04:21:44.366Z,93.87
2024-05-09T04:22:44.514Z,93.77
2024-05-09T04:23:44.556Z,93.77
2024-05-09T04:24:44.630Z,93.57
2024-05-09T04:25:45.630Z,93.67
2024-05-09T04:26:44.782Z,93.57
2024-05-09T04:27:44.875Z,93.46
2024-05-09T04:28:45.007Z,93.36
2024-05-09T04:29:45.042Z,93.36
2024-05-09T04:30:45.125Z,93.36
2024-05-09T04:31:45.258Z,93.36
2024-05-09T04:32:45.479Z,93.26
2024-05-09T04:33:45.469Z,93.16
2024-05-09T04:34:45.485Z,93.05
2024-05-09T04:35:45.738Z,93.16
2024-05-09T04:36:45.609Z,93.01
2024-05-09T04:37:45.767Z,93.05
2024-05-09T04:38:45.854Z,93.36
2024-05-09T04:39:45.875Z,93.67
2024-05-09T04:40:46.122Z,93.87
2024-05-09T04:41:46.030Z,94.08
2024-05-09T04:42:46.133Z,94.29
2024-05-09T04:43:46.274Z,94.39
2024-05-09T04:44:46.321Z,94.49
2024-05-09T04:45:46.402Z,94.55
2024-05-09T04:46:46.492Z,94.45
2024-05-09T04:47:46.852Z,94.55
2024-05-09T04:48:46.702Z,94.55
2024-05-09T04:49:46.703Z,94.45
2024-05-09T04:50:46.867Z,94.40
2024-05-09T04:51:46.871Z,94.30
2024-05-09T04:52:47.001Z,94.20
2024-05-09T04:53:47.091Z,94.10
2024-05-09T04:54:47.144Z,93.99
2024-05-09T04:55:47.374Z,93.68
2024-05-09T04:56:47.323Z,93.64
2024-05-09T04:57:47.404Z,93.64
2024-05-09T04:58:47.564Z,93.54
2024-05-09T04:59:47.539Z,93.54
2024-05-09T05:00:47.737Z,93.44
2024-05-09T05:01:47.826Z,93.44
2024-05-09T05:02:47.872Z,93.44
2024-05-09T05:03:48.074Z,93.54
2024-05-09T05:04:48.042Z,93.39
2024-05-09T05:05:48.185Z,93.49
2024-05-09T05:06:48.141Z,93.39
2024-05-09T05:07:48.237Z,93.39
2024-05-09T05:08:48.318Z,93.29
2024-05-09T05:09:48.401Z,93.25
2024-05-09T05:10:49.367Z,93.15
2024-05-09T05:11:48.616Z,93.04
2024-05-09T05:12:48.642Z,92.94
2024-05-09T05:13:48.781Z,92.79
2024-05-09T05:14:48.802Z,92.69
2024-05-09T05:15:48.950Z,92.49
2024-05-09T05:16:49.001Z,92.49
2024-05-09T05:17:49.232Z,92.49
2024-05-09T05:18:49.239Z,92.49
2024-05-09T05:19:49.391Z,92.44
2024-05-09T05:20:49.370Z,92.44
2024-05-09T05:21:49.334Z,92.44
2024-05-09T05:22:49.450Z,92.44
2024-05-09T05:23:49.561Z,92.44
2024-05-09T05:24:49.598Z,92.40
2024-05-09T05:25:49.946Z,92.40
2024-05-09T05:26:49.759Z,92.30
2024-05-09T05:27:49.853Z,92.05
2024-05-09T05:28:49.947Z,91.85
2024-05-09T05:29:50.090Z,91.44
2024-05-09T05:30:50.377Z,91.13
2024-05-09T05:31:50.248Z,90.92
2024-05-09T05:32:50.455Z,90.82
2024-05-09T05:33:50.441Z,90.92
2024-05-09T05:34:50.529Z,90.99
2024-05-09T05:35:50.497Z,90.99
2024-05-09T05:36:50.572Z,90.88
2024-05-09T05:37:50.741Z,90.64
2024-05-09T05:38:50.817Z,90.02
2024-05-09T05:39:50.838Z,89.82
2024-05-09T05:40:50.947Z,89.41
2024-05-09T05:41:50.995Z,89.20
2024-05-09T05:42:51.060Z,89.06
2024-05-09T05:43:51.173Z,89.06
2024-05-09T05:44:51.217Z,89.17
2024-05-09T05:45:51.293Z,88.96
2024-05-09T05:46:51.390Z,88.82
2024-05-09T05:47:51.575Z,88.71
2024-05-09T05:48:51.621Z,88.82
2024-05-09T05:49:51.646Z,88.17
2024-05-09T05:50:51.753Z,86.80
2024-05-09T05:51:51.784Z,86.71
2024-05-09T05:52:52.014Z,85.66
2024-05-09T05:53:51.970Z,84.80
2024-05-09T05:54:52.096Z,84.21
2024-05-09T05:55:52.147Z,83.76
2024-05-09T05:56:52.174Z,82.17
2024-05-09T05:57:52.270Z,81.31
2024-05-09T05:58:52.462Z,79.14
2024-05-09T05:59:52.363Z,77.99
2024-05-09T06:00:52.523Z,76.64
2024-05-09T06:01:52.564Z,76.43
2024-05-09T06:02:52.807Z,76.50
2024-05-09T06:03:52.840Z,76.87
2024-05-09T06:04:52.984Z,74.87
2024-05-09T06:05:52.925Z,73.63
2024-05-09T06:06:52.933Z,73.59
2024-05-09T06:07:53.049Z,72.28
2024-05-09T06:08:53.219Z,72.55
2024-05-09T06:09:53.180Z,72.91
2024-05-09T06:10:53.338Z,71.37
2024-05-09T06:11:53.520Z,70.69
2024-05-09T06:12:53.404Z,69.68
2024-05-09T06:13:53.573Z,69.79
2024-05-09T06:14:53.629Z,69.72
2024-05-09T06:15:53.691Z,68.38
2024-05-09T06:16:56.010Z,68.65
2024-05-09T06:17:54.053Z,66.30
2024-05-09T06:18:54.213Z,66.64
2024-05-09T06:19:54.337Z,65.33
2024-05-09T06:20:54.179Z,65.50
2024-05-09T06:21:54.190Z,64.66
2024-05-09T06:22:54.363Z,65.70
2024-05-09T06:23:54.385Z,67.07
2024-05-09T06:24:54.480Z,67.47
2024-05-09T06:25:54.676Z,67.91
2024-05-09T06:26:54.657Z,67.54
2024-05-09T06:27:54.748Z,67.27
2024-05-09T06:28:54.888Z,65.64
2024-05-09T06:29:54.930Z,65.67
2024-05-09T06:30:55.033Z,64.34
2024-05-09T06:31:57.189Z,64.04
2024-05-09T06:32:55.308Z,63.23
2024-05-09T06:33:55.340Z,63.67
2024-05-09T06:34:55.396Z,63.93
2024-05-09T06:35:55.432Z,64.11
2024-05-09T06:36:55.519Z,63.60
2024-05-09T06:37:55.627Z,62.37
2024-05-09T06:38:55.675Z,63.60
2024-05-09T06:39:55.741Z,63.90
2024-05-09T06:40:55.874Z,63.17
2024-05-09T06:41:55.930Z,62.74
2024-05-09T06:42:56.027Z,62.64
2024-05-09T06:43:56.150Z,61.48
2024-05-09T06:44:56.182Z,60.92
2024-05-09T06:45:56.240Z,59.39
2024-05-09T06:46:59.523Z,58.92
2024-05-09T06:47:56.569Z,60.15
2024-05-09T06:48:56.791Z,59.89
2024-05-09T06:49:56.642Z,58.97
2024-05-09T06:50:56.662Z,58.81
2024-05-09T06:51:56.734Z,56.66
2024-05-09T06:52:56.845Z,56.23
2024-05-09T06:53:56.897Z,55.51
2024-05-09T06:54:56.980Z,55.16
2024-05-09T06:55:57.098Z,53.91
2024-05-09T06:56:57.156Z,53.39
2024-05-09T06:57:57.259Z,52.34
2024-05-09T06:58:57.389Z,51.45
2024-05-09T06:59:57.506Z,51.45
2024-05-09T07:00:57.536Z,52.04
2024-05-09T07:01:57.590Z,50.83
2024-05-09T07:02:58.997Z,50.93
2024-05-09T07:03:57.817Z,50.70
2024-05-09T07:04:57.963Z,49.66
2024-05-09T07:05:58.002Z,49.07
2024-05-09T07:06:57.990Z,48.94
2024-05-09T07:07:58.084Z,48.05
2024-05-09T07:08:58.167Z,48.80
2024-05-09T07:09:58.204Z,49.09
2024-05-09T07:10:58.371Z,49.49
2024-05-09T07:11:58.475Z,48.94
2024-05-09T07:12:58.451Z,48.63
2024-05-09T07:13:58.604Z,48.43
2024-05-09T07:14:58.603Z,48.63
2024-05-09T07:15:58.678Z,47.81
2024-05-09T07:16:58.917Z,48.23
2024-05-09T07:17:58.969Z,48.85
2024-05-09T07:18:59.106Z,48.47
2024-05-09T07:19:59.019Z,50.05
2024-05-09T07:20:59.100Z,51.35
2024-05-09T07:21:59.133Z,51.05
2024-05-09T07:22:59.274Z,51.10
2024-05-09T07:23:59.296Z,50.06
2024-05-09T07:24:59.372Z,48.65
2024-05-09T07:25:59.480Z,48.30
2024-05-09T07:26:59.569Z,48.26
2024-05-09T07:27:59.628Z,47.15
2024-05-09T07:28:59.792Z,46.04
2024-05-09T07:29:59.807Z,46.70
2024-05-09T07:30:59.891Z,45.48
2024-05-09T07:32:00.027Z,43.78
2024-05-09T07:33:00.630Z,45.98
2024-05-09T07:34:00.405Z,47.29
2024-05-09T07:35:00.285Z,47.54
2024-05-09T07:36:00.319Z,46.23
2024-05-09T07:37:00.423Z,46.26
2024-05-09T07:38:00.547Z,46.48
2024-05-09T07:39:00.569Z,47.91
2024-05-09T07:40:00.617Z,47.78
2024-05-09T07:41:00.761Z,47.07
2024-05-09T07:42:00.807Z,47.07
2024-05-09T07:43:00.869Z,46.78
2024-05-09T07:44:00.976Z,47.27
2024-05-09T07:45:14.829Z,46.45
2024-05-09T07:46:37.846Z,46.91
2024-05-09T07:49:12.413Z,45.28
2024-05-09T07:53:36.382Z,42.63
2024-05-09T07:54:07.301Z,44.49
2024-05-09T07:55:06.907Z,45.30
2024-05-09T07:56:07.226Z,45.40
2024-05-09T07:57:07.122Z,46.73
2024-05-09T07:58:07.111Z,47.13
2024-05-09T07:59:07.144Z,46.19
2024-05-09T08:00:08.245Z,45.85
2024-05-09T08:01:07.419Z,44.80
2024-05-09T08:02:07.566Z,43.84
2024-05-09T08:03:07.489Z,45.32
2024-05-09T08:04:07.621Z,47.37
2024-05-09T08:05:07.891Z,48.50
2024-05-09T08:06:07.716Z,48.85
2024-05-09T08:07:07.871Z,47.15
2024-05-09T08:08:07.867Z,46.31
2024-05-09T08:09:13.594Z,46.26
2024-05-09T08:10:10.689Z,44.72
2024-05-09T08:11:08.176Z,43.99
2024-05-09T08:12:08.204Z,43.08
2024-05-09T08:13:08.349Z,41.96
2024-05-09T08:14:08.362Z,41.72
2024-05-09T08:15:08.437Z,41.39
2024-05-09T08:16:08.570Z,40.37
2024-05-09T08:17:08.696Z,39.78
2024-05-09T08:18:08.991Z,39.69
2024-05-09T08:19:08.930Z,39.82
2024-05-09T08:20:09.832Z,40.94
2024-05-09T08:21:08.900Z,41.03
2024-05-09T08:22:09.071Z,41.09
2024-05-09T08:23:09.111Z,40.09
2024-05-09T08:24:09.157Z,39.59
2024-05-09T08:25:11.295Z,39.69
2024-05-09T08:26:09.314Z,39.61
2024-05-09T08:27:09.392Z,40.53
2024-05-09T08:28:09.645Z,41.61
2024-05-09T08:29:09.557Z,42.20
2024-05-09T08:30:15.596Z,42.35
2024-05-09T08:31:09.768Z,41.11
2024-05-09T08:32:09.821Z,40.56
2024-05-09T08:33:09.950Z,39.64
2024-05-09T08:34:10.191Z,39.25
2024-05-09T08:35:10.030Z,38.73
2024-05-09T08:36:10.153Z,38.22
2024-05-09T08:37:15.698Z,37.81
2024-05-09T08:38:10.339Z,37.09
2024-05-09T08:39:10.397Z,36.51
2024-05-09T08:40:16.970Z,36.90
2024-05-09T08:41:10.569Z,36.49
2024-05-09T08:42:10.656Z,36.49
2024-05-09T08:43:12.301Z,36.98
2024-05-09T08:44:10.822Z,36.10
2024-05-09T08:45:10.917Z,36.05
2024-05-09T08:46:11.065Z,37.67
2024-05-09T08:47:11.102Z,38.04
2024-05-09T08:48:11.292Z,37.75
2024-05-09T08:49:11.315Z,37.12
2024-05-09T08:50:23.917Z,36.60
2024-05-09T08:51:11.437Z,36.68
2024-05-09T08:52:11.570Z,36.35
2024-05-09T08:53:11.601Z,35.85
2024-05-09T08:54:11.680Z,34.81
2024-05-09T08:55:11.826Z,35.78
2024-05-09T08:56:12.133Z,35.47
2024-05-09T08:57:11.918Z,35.16
2024-05-09T08:58:12.248Z,33.88
2024-05-09T08:59:12.074Z,35.18
2024-05-09T09:00:15.132Z,35.61
2024-05-09T09:01:12.400Z,36.57
2024-05-09T09:02:12.540Z,36.39
2024-05-09T09:03:12.502Z,37.27
2024-05-09T09:04:12.754Z,36.18
2024-05-09T09:05:12.737Z,36.47
2024-05-09T09:06:12.716Z,36.27
2024-05-09T09:07:12.742Z,36.98
2024-05-09T09:08:12.804Z,36.80
2024-05-09T09:09:12.869Z,37.46
2024-05-09T09:10:17.674Z,37.25
2024-05-09T09:11:13.044Z,36.63
2024-05-09T09:12:13.121Z,35.75
2024-05-09T09:13:13.266Z,36.06
2024-05-09T09:14:13.267Z,36.72
2024-05-09T09:15:13.350Z,36.06
2024-05-09T09:16:13.490Z,36.47
2024-05-09T09:17:13.579Z,36.57
2024-05-09T09:18:13.676Z,36.39
2024-05-09T09:19:13.764Z,37.21
2024-05-09T09:20:16.625Z,37.67
2024-05-09T09:21:13.832Z,37.15
2024-05-09T09:22:13.983Z,36.94
2024-05-09T09:23:14.002Z,36.25
2024-05-09T09:24:14.086Z,36.08
2024-05-09T09:25:14.162Z,36.78
2024-05-09T09:26:14.235Z,37.15
2024-05-09T09:27:14.310Z,35.78
2024-05-09T09:28:14.526Z,36.80
2024-05-09T09:29:14.449Z,37.34
2024-05-09T09:30:27.768Z,38.20
2024-05-09T09:31:14.624Z,38.60
2024-05-09T09:32:14.689Z,38.78
2024-05-09T09:33:14.858Z,40.00
2024-05-09T09:34:14.987Z,39.94
2024-05-09T09:35:14.936Z,41.56
2024-05-09T09:36:15.007Z,42.95
2024-05-09T09:37:15.165Z,45.60
2024-05-09T09:38:15.186Z,45.08
2024-05-09T09:39:15.257Z,45.63
2024-05-09T09:40:15.579Z,44.72
2024-05-09T09:41:15.429Z,42.26
2024-05-09T09:42:15.473Z,42.85
2024-05-09T09:43:15.837Z,42.93
2024-05-09T09:44:15.696Z,41.33
2024-05-09T09:45:15.696Z,41.02
2024-05-09T09:46:16.086Z,41.53
2024-05-09T09:47:15.902Z,41.90
2024-05-09T09:48:16.019Z,41.78
2024-05-09T09:49:16.146Z,40.98
2024-05-09T09:50:20.466Z,41.24
2024-05-09T09:51:16.171Z,41.93
2024-05-09T09:52:16.300Z,41.53
2024-05-09T09:53:16.304Z,41.77
2024-05-09T09:54:16.404Z,42.18
2024-05-09T09:55:16.628Z,41.49
2024-05-09T09:56:16.568Z,41.53
2024-05-09T09:57:16.622Z,40.39
2024-05-09T09:58:16.897Z,39.48
2024-05-09T09:59:16.787Z,40.09
2024-05-09T10:00:24.037Z,39.19
2024-05-09T10:01:17.035Z,40.88
2024-05-09T10:02:17.179Z,40.17
2024-05-09T10:03:17.192Z,40.06
2024-05-09T10:04:17.342Z,39.11
2024-05-09T10:05:17.369Z,39.60
2024-05-09T10:06:17.358Z,39.03
2024-05-09T10:07:17.490Z,39.50
2024-05-09T10:08:17.537Z,39.40
2024-05-09T10:09:17.609Z,40.17
2024-05-09T10:10:23.133Z,40.11
2024-05-09T10:11:17.800Z,40.33
2024-05-09T10:12:17.895Z,41.65
2024-05-09T10:13:17.976Z,41.45
2024-05-09T10:14:18.016Z,42.83
2024-05-09T10:15:18.095Z,42.32
2024-05-09T10:16:18.316Z,40.01
2024-05-09T10:17:18.294Z,40.00
2024-05-09T10:18:18.508Z,39.72
2024-05-09T10:19:18.535Z,39.86
2024-05-09T10:20:22.092Z,40.25
2024-05-09T10:21:18.631Z,39.26
2024-05-09T10:22:18.755Z,38.40
2024-05-09T10:23:18.764Z,37.41
2024-05-09T10:24:18.835Z,37.81
2024-05-09T10:25:18.988Z,39.11
2024-05-09T10:26:19.000Z,39.89
2024-05-09T10:27:19.068Z,39.32
2024-05-09T10:28:19.179Z,39.32
2024-05-09T10:29:19.206Z,39.32
2024-05-09T10:30:25.967Z,39.48
2024-05-09T10:31:19.382Z,39.42
2024-05-09T10:32:19.511Z,40.21
2024-05-09T10:33:19.680Z,39.56
2024-05-09T10:34:19.911Z,40.05
2024-05-09T10:35:19.622Z,38.19
2024-05-09T10:36:19.702Z,39.29
2024-05-09T10:37:19.850Z,39.51
2024-05-09T10:38:19.852Z,39.61
2024-05-09T10:39:19.924Z,38.40
2024-05-09T10:40:26.142Z,37.89
2024-05-09T10:41:20.082Z,36.31
2024-05-09T10:42:20.151Z,37.81
2024-05-09T10:43:20.400Z,35.69
2024-05-09T10:44:20.330Z,37.39
2024-05-09T10:45:20.538Z,38.60
2024-05-09T10:46:20.707Z,38.09
2024-05-09T10:47:20.628Z,38.20
2024-05-09T10:48:20.760Z,39.69
2024-05-09T10:49:20.919Z,37.82
2024-05-09T10:50:28.087Z,39.01
2024-05-09T10:51:20.914Z,38.54
2024-05-09T10:52:21.027Z,38.85
2024-05-09T10:53:21.056Z,39.95
2024-05-09T10:54:21.142Z,40.92
2024-05-09T10:55:21.597Z,40.26
2024-05-09T10:56:21.339Z,40.08
2024-05-09T10:57:21.403Z,39.29
2024-05-09T10:58:21.530Z,40.40
2024-05-09T10:59:21.602Z,45.08
2024-05-09T11:00:27.752Z,41.50
2024-05-09T11:01:21.834Z,43.79
2024-05-09T11:02:22.004Z,41.89
2024-05-09T11:03:21.928Z,42.51
2024-05-09T11:04:22.090Z,43.21
2024-05-09T11:05:22.367Z,41.50
2024-05-09T11:06:22.205Z,39.90
2024-05-09T11:07:22.323Z,39.70
2024-05-09T11:08:22.374Z,40.80
2024-05-09T11:09:22.488Z,38.49
2024-05-09T11:10:27.822Z,38.41
2024-05-09T11:11:22.625Z,39.80
2024-05-09T11:12:24.720Z,40.80
2024-05-09T11:13:22.814Z,42.39
2024-05-09T11:14:22.872Z,41.30
2024-05-09T11:15:23.030Z,39.78
2024-05-09T11:16:23.058Z,39.98
2024-05-09T11:17:23.361Z,39.89
2024-05-09T11:18:25.347Z,39.59
2024-05-09T11:19:23.394Z,38.69
2024-05-09T11:20:29.441Z,38.89
2024-05-09T11:21:23.442Z,40.86
2024-05-09T11:22:23.533Z,37.90
2024-05-09T11:23:23.597Z,40.28
2024-05-09T11:24:23.673Z,42.79
2024-05-09T11:25:23.834Z,41.67
2024-05-09T11:26:23.852Z,40.68
2024-05-09T11:27:23.946Z,40.10
2024-05-09T11:28:24.071Z,40.70
2024-05-09T11:29:24.087Z,40.68
2024-05-09T11:30:30.016Z,40.88
2024-05-09T11:31:24.516Z,40.88
2024-05-09T11:32:24.406Z,39.27
2024-05-09T11:33:24.422Z,39.17
2024-05-09T11:34:24.580Z,40.40
2024-05-09T11:35:24.550Z,40.30
2024-05-09T11:36:24.644Z,40.40
2024-05-09T11:37:24.781Z,39.42
2024-05-09T11:38:24.774Z,39.50
2024-05-09T11:39:24.874Z,39.32
2024-05-09T11:40:28.395Z,39.54
2024-05-09T11:41:25.045Z,38.75
2024-05-09T11:42:25.132Z,39.34
2024-05-09T11:43:25.312Z,38.25
2024-05-09T11:44:25.302Z,40.84
2024-05-09T11:45:25.391Z,40.42
2024-05-09T11:46:25.575Z,40.12
2024-05-09T11:47:25.674Z,38.63
2024-05-09T11:48:26.197Z,38.73
2024-05-09T11:49:27.008Z,38.73
2024-05-09T11:50:30.107Z,40.24
2024-05-09T11:51:25.876Z,41.12
2024-05-09T11:52:26.036Z,38.54
2024-05-09T11:53:26.042Z,39.58
2024-05-09T11:54:26.130Z,43.01
2024-05-09T11:55:28.167Z,43.61
2024-05-09T11:56:26.315Z,41.50
2024-05-09T11:57:26.390Z,42.79
2024-05-09T11:58:26.533Z,40.00
2024-05-09T11:59:26.533Z,42.41
2024-05-09T12:00:34.064Z,43.01
2024-05-09T12:01:27.885Z,43.11
2024-05-09T12:02:26.788Z,42.29
2024-05-09T12:03:26.853Z,44.37
2024-05-09T12:04:26.992Z,45.36
2024-05-09T12:05:27.085Z,43.85
2024-05-09T12:06:27.100Z,41.36
2024-05-09T12:07:27.247Z,41.06
2024-05-09T12:08:27.240Z,43.45
2024-05-09T12:09:27.300Z,41.44
2024-05-09T12:10:33.155Z,41.33
2024-05-09T12:11:27.543Z,41.71
2024-05-09T12:12:27.533Z,42.01
2024-05-09T12:13:27.785Z,41.71
2024-05-09T12:14:27.714Z,40.12
2024-05-09T12:15:27.991Z,40.72
2024-05-09T12:16:27.996Z,40.12
2024-05-09T12:17:28.106Z,40.22
2024-05-09T12:18:28.135Z,39.12
2024-05-09T12:19:28.170Z,39.72
2024-05-09T12:20:35.512Z,41.71
2024-05-09T12:21:28.329Z,41.33
2024-05-09T12:22:28.360Z,41.08
2024-05-09T12:23:28.471Z,43.09
2024-05-09T12:24:28.588Z,40.22
2024-05-09T12:25:28.649Z,42.63
2024-05-09T12:26:28.702Z,40.44
2024-05-09T12:27:28.820Z,41.14
2024-05-09T12:28:28.862Z,40.73
2024-05-09T12:29:28.903Z,43.03
2024-05-09T12:30:36.323Z,45.83
2024-05-09T12:31:29.127Z,43.61
2024-05-09T12:32:29.218Z,41.61
2024-05-09T12:33:29.283Z,41.80
2024-05-09T12:34:29.333Z,40.50
2024-05-09T12:35:29.376Z,41.00
2024-05-09T12:36:29.483Z,39.90
2024-05-09T12:37:29.519Z,40.89
2024-05-09T12:38:29.629Z,39.10
2024-05-09T12:39:29.725Z,41.99
2024-05-09T12:40:35.866Z,41.60
2024-05-09T12:41:29.845Z,40.59
2024-05-09T12:42:31.363Z,40.20
2024-05-09T12:43:30.133Z,42.49
2024-05-09T12:44:30.076Z,42.18
2024-05-09T12:45:30.211Z,40.20
2024-05-09T12:46:30.256Z,41.00
2024-05-09T12:47:30.356Z,40.70
2024-05-09T12:48:30.527Z,40.59
2024-05-09T12:49:30.622Z,42.19
2024-05-09T12:50:33.300Z,43.97
2024-05-09T12:51:30.634Z,42.87
2024-05-09T12:52:30.664Z,43.27
2024-05-09T12:53:30.737Z,44.57
2024-05-09T12:54:30.827Z,41.38
2024-05-09T12:55:37.252Z,42.07
2024-05-09T12:56:30.957Z,42.79
2024-05-09T12:57:31.070Z,43.29
2024-05-09T12:58:31.123Z,38.94
2024-05-09T12:59:31.159Z,41.66